Time;durP1;ratioP1;P1;durP2;ratioP2;P2;SDS_P1;SDS_P2;PMS_P1;PMS_P2;Temp;Humidity;BMP_temperature;BMP_pressure;BME280_temperature;BME280_humidity;BME280_pressure;Samples;Min_cycle;Max_cycle;Signal;HPM_P1;HPM_P2
2022/03/30 00:00:54;;;;;;;7.30;2.42;;;-0.20;96.50;;;;;;5061503;28;20570;-62
2022/03/30 00:04:19;;;;;;;7.20;2.10;;;-0.30;98.40;;;;;;5055829;28;20038;-62
2022/03/30 00:07:45;;;;;;;9.23;1.80;;;-0.30;98.60;;;;;;5055435;28;20098;-62
2022/03/30 00:11:10;;;;;;;5.20;1.60;;;-0.40;99.90;;;;;;5044390;28;20036;-62
2022/03/30 00:14:36;;;;;;;4.50;1.95;;;-0.40;99.90;;;;;;5062309;28;20451;-62
2022/03/30 00:18:01;;;;;;;9.48;3.63;;;-0.40;99.90;;;;;;5058627;28;20036;-62
2022/03/30 00:21:26;;;;;;;5.38;1.90;;;-0.50;99.90;;;;;;5041063;28;20519;-62
2022/03/30 00:24:51;;;;;;;8.73;2.47;;;-0.50;99.90;;;;;;5061982;28;20099;-56
2022/03/30 00:28:17;;;;;;;4.38;2.00;;;-0.60;99.90;;;;;;5055338;28;20051;-53
2022/03/30 00:31:42;;;;;;;9.43;2.58;;;-0.60;99.90;;;;;;5049648;28;20044;-55
2022/03/30 00:35:08;;;;;;;6.80;1.92;;;-0.80;99.90;;;;;;5053712;28;20052;-56
2022/03/30 00:38:33;;;;;;;8.85;3.22;;;-0.80;99.90;;;;;;5046222;28;20048;-56
2022/03/30 00:41:58;;;;;;;9.68;3.47;;;-0.80;99.90;;;;;;5064201;28;20072;-58
2022/03/30 00:45:30;;;;;;;12.73;4.60;;;-0.90;99.90;;;;;;5060557;28;20024;-58
2022/03/30 00:48:55;;;;;;;12.35;3.72;;;-0.90;99.90;;;;;;5026527;28;20060;-55
2022/03/30 00:52:20;;;;;;;12.05;4.10;;;-1.00;99.90;;;;;;5058700;28;20039;-57
2022/03/30 00:55:46;;;;;;;10.77;3.08;;;-1.10;99.90;;;;;;5046148;28;20033;-57
2022/03/30 00:59:11;;;;;;;6.13;2.72;;;-1.10;99.90;;;;;;5061249;28;20411;-55
2022/03/30 01:02:36;;;;;;;8.82;3.33;;;-1.10;99.90;;;;;;5059067;28;20033;-55
2022/03/30 01:06:02;;;;;;;14.13;3.78;;;-1.00;99.90;;;;;;5054231;28;20484;-56
2022/03/30 01:09:27;;;;;;;7.72;2.50;;;-1.00;99.90;;;;;;5032422;28;20048;-56
2022/03/30 01:12:54;;;;;;;9.75;3.05;;;-1.00;99.90;;;;;;5032616;28;20034;-53
2022/03/30 01:16:18;;;;;;;7.72;3.10;;;-1.10;99.90;;;;;;5043674;28;20048;-56
2022/03/30 01:19:49;;;;;;;12.30;3.63;;;-1.10;99.90;;;;;;5060975;28;20297;-58
2022/03/30 01:23:15;;;;;;;6.20;2.60;;;-1.20;99.90;;;;;;5060903;28;20040;-55
2022/03/30 01:26:41;;;;;;;5.68;1.90;;;-1.20;99.90;;;;;;5044814;28;20417;-56
2022/03/30 01:33:25;;;;;;;;;;;-1.30;99.90;;;;;;5031725;28;20045;-55
2022/03/30 01:36:49;;;;;;;4.03;1.58;;;-1.40;99.90;;;;;;5045629;28;20007;-57
2022/03/30 01:40:15;;;;;;;5.90;2.38;;;-1.40;99.90;;;;;;5063890;28;20039;-55
2022/03/30 01:43:40;;;;;;;9.38;2.45;;;-1.50;99.90;;;;;;5051800;28;20400;-56
2022/03/30 01:47:05;;;;;;;9.82;2.70;;;-1.50;99.90;;;;;;5047756;28;20045;-56
2022/03/30 01:50:32;;;;;;;10.48;3.03;;;-1.60;99.90;;;;;;5053786;28;20493;-54
2022/03/30 01:53:56;;;;;;;9.27;2.80;;;-1.60;99.90;;;;;;5051574;28;20041;-54
2022/03/30 01:57:23;;;;;;;9.65;2.47;;;-1.60;99.90;;;;;;5064532;28;20626;-54
2022/03/30 02:00:47;;;;;;;6.78;2.92;;;-1.50;99.90;;;;;;5052912;28;20116;-58
2022/03/30 02:04:13;;;;;;;8.73;3.30;;;-1.50;99.90;;;;;;5060211;28;20149;-57
2022/03/30 02:07:38;;;;;;;13.70;3.42;;;-1.40;99.90;;;;;;5065200;28;20036;-54
2022/03/30 02:11:03;;;;;;;10.32;3.08;;;-1.40;99.90;;;;;;5038699;28;20037;-55
2022/03/30 02:14:29;;;;;;;6.10;2.80;;;-1.30;99.90;;;;;;5060088;28;20059;-54
2022/03/30 02:17:54;;;;;;;10.85;3.78;;;-1.30;99.90;;;;;;5061496;28;20093;-55
2022/03/30 02:21:19;;;;;;;11.40;4.13;;;-1.20;99.90;;;;;;5046934;28;20378;-55
2022/03/30 02:24:45;;;;;;;8.27;3.38;;;-1.30;99.90;;;;;;5059926;28;20032;-57
2022/03/30 02:28:10;;;;;;;12.00;3.88;;;-1.30;99.90;;;;;;5059608;28;20045;-56
2022/03/30 02:31:36;;;;;;;10.00;3.40;;;-1.30;99.90;;;;;;5051870;28;20053;-56
2022/03/30 02:35:01;;;;;;;6.22;2.83;;;-1.30;99.90;;;;;;5056938;28;20408;-57
2022/03/30 02:38:26;;;;;;;13.57;3.65;;;-1.30;99.90;;;;;;5067682;28;20132;-57
2022/03/30 02:41:52;;;;;;;9.77;3.83;;;-1.30;99.90;;;;;;5044875;28;20048;-53
2022/03/30 02:45:17;;;;;;;8.48;3.33;;;-1.30;99.90;;;;;;5064999;28;20040;-57
2022/03/30 02:48:42;;;;;;;12.63;3.67;;;-1.40;99.90;;;;;;5051976;28;20041;-56
2022/03/30 02:52:08;;;;;;;12.98;3.65;;;-1.40;99.90;;;;;;5046817;28;20120;-56
2022/03/30 02:55:33;;;;;;;8.35;3.67;;;-1.40;99.90;;;;;;5057188;28;20024;-57
2022/03/30 02:58:58;;;;;;;7.03;2.92;;;-1.40;99.90;;;;;;5050497;28;20029;-56
2022/03/30 03:02:24;;;;;;;6.00;3.65;;;-1.30;99.90;;;;;;5064506;28;20044;-58
2022/03/30 03:05:49;;;;;;;8.25;4.22;;;-1.20;99.90;;;;;;5050543;28;20033;-57
2022/03/30 03:09:15;;;;;;;9.65;3.85;;;-1.20;99.90;;;;;;5058815;28;20148;-56
2022/03/30 03:12:40;;;;;;;8.43;3.50;;;-1.10;99.90;;;;;;5058981;28;20036;-57
2022/03/30 03:16:05;;;;;;;6.45;2.95;;;-1.10;99.90;;;;;;5047488;28;20033;-57
2022/03/30 03:19:32;;;;;;;10.02;2.63;;;-1.00;99.90;;;;;;5049888;28;20040;-57
2022/03/30 03:22:56;;;;;;;7.22;3.00;;;-1.10;99.90;;;;;;5058363;28;20037;-55
2022/03/30 03:26:21;;;;;;;7.75;2.85;;;-1.00;99.90;;;;;;5052712;28;20048;-53
2022/03/30 03:29:47;;;;;;;5.38;2.53;;;-1.00;99.90;;;;;;5058358;28;20067;-58
2022/03/30 03:33:12;;;;;;;10.25;2.90;;;-0.90;99.90;;;;;;5058724;28;20028;-58
2022/03/30 03:36:40;;;;;;;4.90;2.20;;;-0.80;99.90;;;;;;5050345;28;20481;-57
2022/03/30 03:39:46;;;;;;;;;;;-0.90;99.90;;;;;;5055688;28;20480;-56
2022/03/30 03:43:11;;;;;;;5.30;2.42;;;-0.90;99.90;;;;;;5063914;28;20372;-58
2022/03/30 03:46:36;;;;;;;10.27;2.42;;;-1.00;99.90;;;;;;5042690;28;20035;-56
2022/03/30 03:50:02;;;;;;;4.30;1.92;;;-1.10;99.90;;;;;;5055583;28;20516;-57
2022/03/30 03:53:27;;;;;;;9.38;2.78;;;-1.10;99.90;;;;;;5065784;28;20029;-56
2022/03/30 03:56:53;;;;;;;5.07;2.92;;;-1.20;99.90;;;;;;5045711;28;20048;-59
2022/03/30 04:00:18;;;;;;;5.80;2.67;;;-1.30;99.90;;;;;;5029423;28;20102;-55
2022/03/30 04:03:43;;;;;;;6.60;2.20;;;-1.40;99.90;;;;;;5049325;28;20033;-52
2022/03/30 04:07:09;;;;;;;9.48;2.67;;;-1.50;99.90;;;;;;5043369;28;20075;-55
2022/03/30 04:10:34;;;;;;;7.00;2.00;;;-1.50;99.90;;;;;;5056164;28;20135;-55
2022/03/30 04:13:59;;;;;;;5.75;2.17;;;-1.60;99.90;;;;;;5063338;28;20044;-57
2022/03/30 04:17:25;;;;;;;11.65;2.05;;;-1.60;99.90;;;;;;5041621;28;20407;-53
2022/03/30 04:20:50;;;;;;;6.28;2.00;;;-1.70;99.90;;;;;;5053975;28;20090;-57
2022/03/30 04:24:15;;;;;;;7.53;1.60;;;-1.70;99.90;;;;;;5067083;28;20037;-55
2022/03/30 04:27:41;;;;;;;4.00;1.55;;;-1.70;99.90;;;;;;5046038;28;20485;-57
2022/03/30 04:31:06;;;;;;;4.20;1.92;;;-1.70;99.90;;;;;;5051642;28;20052;-57
2022/03/30 04:34:32;;;;;;;8.80;2.30;;;-1.80;99.90;;;;;;5048959;28;20505;-56
2022/03/30 04:37:57;;;;;;;11.27;2.08;;;-1.80;99.90;;;;;;5061128;28;20043;-56
2022/03/30 04:41:23;;;;;;;6.28;1.80;;;-1.80;99.90;;;;;;5060838;28;20039;-56
2022/03/30 04:44:48;;;;;;;4.75;1.58;;;-1.80;99.90;;;;;;5067448;28;20060;-54
2022/03/30 04:48:13;;;;;;;5.45;1.58;;;-1.70;99.90;;;;;;5064759;28;20029;-57
2022/03/30 04:51:38;;;;;;;9.18;2.05;;;-1.70;99.90;;;;;;5052854;28;20470;-57
2022/03/30 04:55:04;;;;;;;7.13;2.15;;;-1.60;99.90;;;;;;5052687;28;20053;-57
2022/03/30 04:58:30;;;;;;;6.43;2.00;;;-1.50;99.90;;;;;;5052534;28;20116;-58
2022/03/30 05:01:54;;;;;;;6.25;2.03;;;-1.30;99.90;;;;;;5061411;28;20412;-57
2022/03/30 05:05:20;;;;;;;10.75;3.53;;;-1.10;99.90;;;;;;5061486;28;20097;-58
2022/03/30 05:08:46;;;;;;;10.60;3.92;;;-0.90;99.90;;;;;;5049989;28;20041;-55
2022/03/30 05:12:11;;;;;;;8.90;3.63;;;-0.70;99.90;;;;;;5060956;28;20151;-58
2022/03/30 05:15:36;;;;;;;13.98;4.90;;;-0.50;99.90;;;;;;5065241;28;20393;-58
2022/03/30 05:19:02;;;;;;;8.95;3.22;;;-0.30;99.90;;;;;;5042042;28;20129;-57
2022/03/30 05:22:27;;;;;;;12.18;3.58;;;-0.20;99.90;;;;;;5068456;28;20029;-58
2022/03/30 05:25:52;;;;;;;10.27;3.97;;;0.00;99.90;;;;;;5060881;28;20044;-55
2022/03/30 05:29:17;;;;;;;11.15;4.00;;;0.20;99.90;;;;;;5045398;28;20067;-57
2022/03/30 05:32:45;;;;;;;11.15;3.80;;;0.40;99.90;;;;;;5063497;28;20090;-54
2022/03/30 05:36:08;;;;;;;14.60;4.35;;;0.60;99.90;;;;;;5069366;28;20564;-54
2022/03/30 05:39:35;;;;;;;17.40;4.28;;;0.70;99.90;;;;;;5046060;28;20566;-57
2022/03/30 05:42:59;;;;;;;13.60;4.95;;;0.90;99.90;;;;;;5055309;28;20041;-55
2022/03/30 05:46:24;;;;;;;10.43;4.05;;;1.00;99.90;;;;;;5038507;28;20049;-57
2022/03/30 05:49:50;;;;;;;15.35;4.68;;;1.20;99.90;;;;;;5059187;28;20061;-58
2022/03/30 05:53:15;;;;;;;11.20;3.75;;;1.30;99.90;;;;;;5059555;28;20032;-58
2022/03/30 06:00:06;;;;;;;13.40;4.60;;;1.60;99.40;;;;;;5030432;28;20144;-52
2022/03/30 06:03:30;;;;;;;14.82;3.70;;;1.70;98.90;;;;;;5064611;28;20033;-57
2022/03/30 06:06:55;;;;;;;11.07;3.55;;;1.90;98.20;;;;;;5044964;28;20413;-57
2022/03/30 06:10:21;;;;;;;8.95;2.58;;;2.10;98.00;;;;;;5053576;28;20041;-58
2022/03/30 06:13:46;;;;;;;5.40;2.45;;;2.30;97.10;;;;;;5049805;28;20671;-59
2022/03/30 06:17:11;;;;;;;8.52;2.70;;;2.40;97.20;;;;;;5044822;28;20041;-58
2022/03/30 06:20:37;;;;;;;9.07;2.50;;;2.60;95.60;;;;;;5034437;28;20459;-53
2022/03/30 06:24:02;;;;;;;19.63;1.90;;;2.70;95.10;;;;;;5035088;28;20079;-56
2022/03/30 06:27:27;;;;;;;8.63;2.00;;;3.00;94.30;;;;;;5063942;28;20069;-58
2022/03/30 06:30:53;;;;;;;7.78;1.73;;;3.20;92.50;;;;;;5048914;28;20052;-53
2022/03/30 06:34:18;;;;;;;7.88;1.70;;;3.50;91.60;;;;;;5058672;28;20535;-54
2022/03/30 06:37:44;;;;;;;9.60;2.72;;;3.90;89.10;;;;;;5059348;28;20052;-56
2022/03/30 06:41:09;;;;;;;8.93;2.40;;;4.30;84.70;;;;;;5053903;28;20037;-57
2022/03/30 06:44:34;;;;;;;9.60;2.28;;;4.70;79.70;;;;;;5058309;28;20037;-57
2022/03/30 06:48:00;;;;;;;10.63;2.38;;;5.20;76.20;;;;;;5057987;28;20056;-56
2022/03/30 06:51:25;;;;;;;31.17;3.40;;;5.90;69.20;;;;;;5043923;28;20064;-53
2022/03/30 06:54:50;;;;;;;6.63;2.40;;;6.70;64.70;;;;;;5059069;28;20033;-56
2022/03/30 06:58:16;;;;;;;7.90;2.63;;;7.40;56.50;;;;;;5067682;28;20060;-57
2022/03/30 07:01:41;;;;;;;8.75;1.50;;;8.10;53.20;;;;;;5042261;28;20046;-53
2022/03/30 07:05:06;;;;;;;5.85;2.30;;;8.80;49.80;;;;;;5050792;28;20049;-59
2022/03/30 07:11:56;;;;;;;9.85;2.78;;;11.20;36.50;;;;;;5044456;28;20147;-60
2022/03/30 07:15:21;;;;;;;9.55;2.40;;;11.80;30.60;;;;;;5048242;28;20029;-60
2022/03/30 07:18:46;;;;;;;5.28;2.20;;;13.10;26.00;;;;;;5067861;28;20067;-58
2022/03/30 07:22:13;;;;;;;6.13;1.85;;;15.50;23.60;;;;;;5046452;28;20041;-60
2022/03/30 07:25:37;;;;;;;4.53;1.80;;;16.80;21.00;;;;;;5048875;28;20033;-59
2022/03/30 07:29:02;;;;;;;8.05;1.98;;;17.60;13.50;;;;;;5057452;28;20125;-60
2022/03/30 07:32:28;;;;;;;7.10;2.25;;;18.20;13.20;;;;;;5063009;28;20037;-58
2022/03/30 07:35:53;;;;;;;8.52;1.80;;;17.80;13.50;;;;;;5047649;28;20072;-60
2022/03/30 07:39:18;;;;;;;8.63;2.10;;;18.40;13.00;;;;;;5057290;28;20039;-58
2022/03/30 07:42:44;;;;;;;5.20;1.88;;;18.30;9.90;;;;;;5062828;28;20083;-55
2022/03/30 07:46:13;;;;;;;6.65;1.85;;;18.00;8.80;;;;;;5042175;28;20045;-55
2022/03/30 07:49:34;;;;;;;8.13;2.40;;;18.50;10.70;;;;;;5055622;28;20477;-54
2022/03/30 07:53:00;;;;;;;5.53;1.95;;;18.00;8.20;;;;;;5064939;28;20102;-56
2022/03/30 07:56:25;;;;;;;6.78;1.90;;;16.60;10.80;;;;;;5047989;28;20587;-58
2022/03/30 07:59:50;;;;;;;8.52;2.42;;;16.20;12.00;;;;;;5056779;28;20037;-56
2022/03/30 08:03:16;;;;;;;7.45;1.80;;;15.40;12.70;;;;;;5057020;28;20037;-56
2022/03/30 08:06:41;;;;;;;5.18;1.85;;;14.50;13.80;;;;;;5045854;28;20043;-54
2022/03/30 08:10:08;;;;;;;5.35;1.75;;;14.20;13.40;;;;;;5060429;28;20054;-55
2022/03/30 08:13:32;;;;;;;6.90;1.77;;;14.10;16.80;;;;;;5047499;28;20073;-54
2022/03/30 08:16:57;;;;;;;9.15;1.83;;;14.20;14.30;;;;;;5038069;28;20029;-50
2022/03/30 08:23:47;;;;;;;5.22;1.70;;;14.70;12.00;;;;;;5054164;28;20098;-55
2022/03/30 08:27:12;;;;;;;5.25;1.63;;;15.40;12.00;;;;;;5044955;28;20621;-55
2022/03/30 08:30:38;;;;;;;8.02;1.90;;;15.80;11.30;;;;;;5056012;28;20033;-51
2022/03/30 08:34:03;;;;;;;8.70;1.63;;;15.70;10.60;;;;;;5056680;28;20487;-58
2022/03/30 08:37:29;;;;;;;4.68;1.73;;;15.00;12.00;;;;;;5064127;28;20056;-54
2022/03/30 08:40:57;;;;;;;4.95;1.60;;;14.70;11.60;;;;;;5053338;28;20598;-56
2022/03/30 08:44:20;;;;;;;5.47;1.50;;;14.70;11.20;;;;;;5063550;28;20033;-50
2022/03/30 08:47:45;;;;;;;5.30;1.27;;;15.60;9.10;;;;;;5065394;28;20032;-53
2022/03/30 08:51:10;;;;;;;6.03;1.90;;;16.50;7.60;;;;;;5036331;28;20044;-52
2022/03/30 08:54:35;;;;;;;6.20;2.03;;;16.00;7.30;;;;;;5027897;28;20577;-53
2022/03/30 08:58:01;;;;;;;3.38;1.27;;;15.90;10.30;;;;;;5064499;28;20040;-49
2022/03/30 09:01:26;;;;;;;5.82;1.67;;;15.70;8.00;;;;;;5048488;28;20539;-52
2022/03/30 09:04:51;;;;;;;5.32;1.20;;;15.40;8.60;;;;;;5061592;28;20028;-50
2022/03/30 09:08:32;;;;;;;3.67;1.45;;;15.30;7.10;;;;;;5061877;28;20127;-48
2022/03/30 09:11:40;;;;;;;8.20;1.95;;;16.00;7.40;;;;;;5043214;28;20057;-54
2022/03/30 09:15:05;;;;;;;5.32;1.63;;;16.20;6.60;;;;;;5027458;28;20151;-51
2022/03/30 09:18:37;;;;;;;4.18;1.55;;;16.70;6.10;;;;;;5066409;28;20040;-55
2022/03/30 09:22:02;;;;;;;4.07;1.60;;;17.40;4.70;;;;;;5043712;28;20041;-51
2022/03/30 09:25:28;;;;;;;5.38;1.65;;;16.90;6.50;;;;;;5056787;28;20110;-53
2022/03/30 09:28:53;;;;;;;7.38;1.92;;;17.30;5.60;;;;;;5059559;28;20048;-51
2022/03/30 09:32:21;;;;;;;6.07;1.88;;;16.70;5.50;;;;;;5065433;28;20035;-53
2022/03/30 09:35:41;;;;;;;;;;;15.90;6.70;;;;;;5051012;28;20129;-55
2022/03/30 09:39:04;;;;;;;8.00;1.50;;;16.00;6.60;;;;;;5030784;28;19913;-49
2022/03/30 09:42:30;;;;;;;3.97;1.58;;;16.10;7.50;;;;;;5068887;28;20036;-57
2022/03/30 09:45:55;;;;;;;4.45;1.42;;;15.70;6.50;;;;;;5058700;28;20037;-54
2022/03/30 09:49:20;;;;;;;4.85;1.35;;;15.70;7.30;;;;;;5067259;28;20527;-56
2022/03/30 09:52:59;;;;;;;4.75;1.75;;;16.10;7.20;;;;;;5068504;28;20090;-57
2022/03/30 09:56:33;;;;;;;6.50;2.08;;;15.40;7.00;;;;;;5045343;28;20625;-55
2022/03/30 09:59:57;;;;;;;4.97;1.83;;;14.80;8.70;;;;;;5056525;28;20032;-52
2022/03/30 10:03:21;;;;;;;6.95;1.92;;;14.50;9.60;;;;;;5064436;28;20063;-48
2022/03/30 10:06:59;;;;;;;4.90;1.65;;;14.00;9.40;;;;;;5044244;28;20492;-52
2022/03/30 10:10:21;;;;;;;6.32;1.88;;;13.50;10.40;;;;;;5061934;28;20036;-52
2022/03/30 10:13:46;;;;;;;7.20;2.40;;;12.90;11.20;;;;;;5050207;28;20040;-52
2022/03/30 10:17:13;;;;;;;6.47;2.15;;;12.00;13.00;;;;;;5043519;28;20044;-54
2022/03/30 10:20:37;;;;;;;4.93;1.80;;;12.00;13.10;;;;;;5034238;28;20090;-53
2022/03/30 10:24:04;;;;;;;5.03;1.60;;;11.80;13.40;;;;;;5030580;28;20408;-52
2022/03/30 10:27:26;;;;;;;4.72;1.58;;;11.90;13.60;;;;;;5067573;28;20576;-53
2022/03/30 10:30:50;;;;;;;3.50;1.48;;;12.10;13.50;;;;;;5048253;28;20107;-52
2022/03/30 10:34:15;;;;;;;8.23;2.25;;;12.20;12.80;;;;;;5066096;28;20043;-50
2022/03/30 10:37:44;;;;;;;5.25;1.95;;;12.20;12.60;;;;;;5049629;28;20078;-54
2022/03/30 10:40:49;;;;;;;;;;;12.20;12.80;;;;;;5046533;28;20192;-53
2022/03/30 10:44:14;;;;;;;5.47;1.83;;;12.00;12.10;;;;;;5030005;28;20351;-52
2022/03/30 10:47:49;;;;;;;3.35;1.48;;;12.00;12.70;;;;;;5058256;28;20043;-50
2022/03/30 10:51:13;;;;;;;7.75;2.20;;;12.40;12.80;;;;;;5050869;28;20055;-49
2022/03/30 10:54:50;;;;;;;6.18;1.90;;;12.50;11.50;;;;;;5058239;28;20032;-55
2022/03/30 10:58:13;;;;;;;6.68;1.88;;;12.90;11.40;;;;;;5060412;28;20040;-51
2022/03/30 11:01:56;;;;;;;6.57;1.95;;;13.20;10.80;;;;;;5052796;28;20055;-53
2022/03/30 11:05:28;;;;;;;5.90;1.67;;;13.40;9.50;;;;;;5057945;28;20036;-54
2022/03/30 11:08:31;;;;;;;7.15;1.90;;;13.20;8.90;;;;;;5063554;28;20044;-50
2022/03/30 11:12:17;;;;;;;3.60;1.40;;;13.30;9.20;;;;;;5034121;28;20159;-51
2022/03/30 11:15:40;;;;;;;3.90;1.73;;;13.00;8.60;;;;;;5064025;28;20025;-54
2022/03/30 11:19:12;;;;;;;3.92;1.63;;;12.70;9.90;;;;;;5063512;28;20044;-53
2022/03/30 11:22:47;;;;;;;5.53;1.30;;;12.60;10.10;;;;;;5043053;28;20025;-56
2022/03/30 11:26:12;;;;;;;4.38;1.73;;;12.70;10.70;;;;;;5055616;28;20052;-56
2022/03/30 11:29:37;;;;;;;7.90;2.10;;;12.60;11.00;;;;;;5052300;28;20416;-57
2022/03/30 11:32:32;;;;;;;5.07;1.70;;;12.50;11.30;;;;;;5043138;28;20091;-56
2022/03/30 11:35:57;;;;;;;7.78;2.22;;;12.50;11.10;;;;;;5034123;28;20547;-55
2022/03/30 11:39:21;;;;;;;4.05;1.67;;;12.40;10.80;;;;;;5061760;28;20036;-58
2022/03/30 11:42:46;;;;;;;2.92;1.42;;;11.90;10.40;;;;;;5051028;28;20645;-57
2022/03/30 11:46:13;;;;;;;4.55;1.63;;;11.70;11.00;;;;;;5053445;28;20037;-57
2022/03/30 11:49:40;;;;;;;7.78;2.47;;;11.90;12.50;;;;;;5060206;28;20543;-58
2022/03/30 11:52:45;;;;;;;;;;;11.50;13.40;;;;;;5045068;28;20474;-57
2022/03/30 11:56:12;;;;;;;6.18;2.13;;;11.50;14.20;;;;;;5046116;28;20426;-57
2022/03/30 11:59:38;;;;;;;5.78;2.20;;;11.40;14.70;;;;;;5045333;28;20396;-56
2022/03/30 12:03:07;;;;;;;6.28;2.33;;;11.50;14.20;;;;;;5060251;28;20040;-56
2022/03/30 12:06:32;;;;;;;3.97;1.65;;;11.40;13.80;;;;;;5063123;28;20036;-56
2022/03/30 12:10:03;;;;;;;4.75;2.15;;;11.50;13.90;;;;;;5047794;28;20087;-58
2022/03/30 12:13:29;;;;;;;6.22;1.70;;;11.80;14.30;;;;;;5061902;28;20029;-55
2022/03/30 12:16:54;;;;;;;5.25;2.17;;;11.80;13.30;;;;;;5047389;28;20417;-55
2022/03/30 12:20:19;;;;;;;3.90;1.63;;;11.60;13.80;;;;;;5050562;28;20035;-53
2022/03/30 12:23:06;;;;;;;3.85;1.80;;;11.80;14.10;;;;;;5056453;28;20518;-61
2022/03/30 12:25:42;;;;;;;5.35;1.75;;;12.10;13.70;;;;;;5050166;28;20442;-61
2022/03/30 12:28:07;;;;;;;5.80;2.17;;;12.00;13.50;;;;;;5067517;28;20120;-62
2022/03/30 12:30:35;;;;;;;9.20;2.13;;;11.90;13.40;;;;;;5051051;28;20491;-61
2022/03/30 12:33:01;;;;;;;3.95;2.03;;;12.00;13.50;;;;;;5067338;28;20108;-61
2022/03/30 12:35:33;;;;;;;6.97;1.90;;;12.00;13.40;;;;;;5050017;28;20021;-61
2022/03/30 12:38:10;;;;;;;4.32;2.35;;;11.80;12.70;;;;;;5067360;28;20017;-61
2022/03/30 12:40:39;;;;;;;7.38;2.53;;;11.70;13.00;;;;;;5036102;28;20029;-61
2022/03/30 12:43:05;;;;;;;4.18;1.98;;;11.80;13.30;;;;;;5066982;28;20541;-61
2022/03/30 12:45:32;;;;;;;7.97;2.28;;;11.60;13.10;;;;;;5050658;28;20024;-61
2022/03/30 12:48:01;;;;;;;6.63;2.30;;;11.30;13.70;;;;;;5067321;28;20656;-60
2022/03/30 12:50:31;;;;;;;6.63;2.10;;;11.00;14.20;;;;;;5049480;28;20373;-60
2022/03/30 12:53:08;;;;;;;4.45;1.77;;;10.80;14.40;;;;;;5067747;28;20033;-61
2022/03/30 12:55:36;;;;;;;5.35;1.75;;;10.70;15.30;;;;;;5035084;28;20050;-60
2022/03/30 12:58:13;;;;;;;4.85;2.00;;;10.70;14.60;;;;;;5067363;28;20400;-60
2022/03/30 13:00:43;;;;;;;10.07;2.28;;;10.40;15.30;;;;;;5037865;28;20074;-61
2022/03/30 13:03:16;;;;;;;4.38;1.67;;;10.30;15.00;;;;;;5071304;28;20029;-60
2022/03/30 13:05:47;;;;;;;5.20;2.05;;;10.20;15.40;;;;;;5055172;28;20396;-61
2022/03/30 13:08:20;;;;;;;3.95;1.50;;;10.20;15.90;;;;;;5071523;28;20517;-60
2022/03/30 13:11:00;;;;;;;5.53;1.92;;;10.20;15.50;;;;;;5042514;28;20028;-61
2022/03/30 13:13:35;;;;;;;6.35;1.65;;;10.20;15.20;;;;;;5051260;28;20405;-61
2022/03/30 13:16:05;;;;;;;6.38;1.75;;;10.30;15.20;;;;;;5055136;28;20504;-61
2022/03/30 13:18:31;;;;;;;4.88;1.50;;;10.50;15.10;;;;;;5070650;28;20119;-61
2022/03/30 13:21:08;;;;;;;4.65;1.65;;;10.70;15.20;;;;;;5057532;28;20131;-60
2022/03/30 13:23:49;;;;;;;5.63;1.90;;;10.80;14.80;;;;;;5031127;28;20120;-61
2022/03/30 13:26:29;;;;;;;4.47;1.80;;;10.80;15.40;;;;;;5049469;28;20044;-60
2022/03/30 13:28:57;;;;;;;7.13;2.05;;;10.80;14.80;;;;;;5049291;28;20048;-58
2022/03/30 13:31:22;;;;;;;5.20;1.90;;;10.70;15.10;;;;;;5046907;28;20029;-59
2022/03/30 13:33:49;;;;;;;4.65;1.80;;;10.80;15.10;;;;;;5067497;28;20403;-59
2022/03/30 13:36:15;;;;;;;3.20;1.80;;;10.90;15.10;;;;;;5052602;28;20033;-58
2022/03/30 13:38:44;;;;;;;4.03;1.25;;;11.00;14.90;;;;;;5051765;28;20440;-58
2022/03/30 13:41:09;;;;;;;7.18;1.73;;;11.00;14.70;;;;;;5071126;28;20053;-58
2022/03/30 13:43:35;;;;;;;4.47;1.55;;;10.90;14.80;;;;;;5068774;28;20079;-59
2022/03/30 13:46:00;;;;;;;3.90;1.77;;;10.70;15.00;;;;;;5057935;28;20686;-59
2022/03/30 13:48:26;;;;;;;4.68;1.67;;;10.80;15.20;;;;;;5050594;28;20280;-59
2022/03/30 13:50:54;;;;;;;4.75;1.95;;;10.80;15.40;;;;;;5048775;28;20021;-58
2022/03/30 13:53:20;;;;;;;4.50;1.70;;;10.60;15.00;;;;;;5051381;28;20122;-59
2022/03/30 13:55:45;;;;;;;5.28;1.90;;;10.40;16.30;;;;;;5048529;28;20574;-58
2022/03/30 13:58:11;;;;;;;3.33;1.60;;;10.10;15.90;;;;;;5050954;28;20139;-59
2022/03/30 14:00:37;;;;;;;6.35;1.70;;;10.20;16.30;;;;;;5048900;28;20033;-59
2022/03/30 14:03:03;;;;;;;4.65;1.70;;;10.40;16.70;;;;;;5069899;28;20214;-58
2022/03/30 14:05:31;;;;;;;6.20;1.73;;;10.50;15.80;;;;;;5049532;28;20460;-58
2022/03/30 14:07:57;;;;;;;4.80;2.15;;;10.50;15.50;;;;;;5069965;28;20036;-58
2022/03/30 14:10:24;;;;;;;4.32;1.60;;;10.30;15.80;;;;;;5059701;28;20036;-59
2022/03/30 14:12:50;;;;;;;3.75;2.10;;;10.30;16.00;;;;;;5050211;28;20724;-57
2022/03/30 14:15:16;;;;;;;4.22;1.45;;;10.40;15.80;;;;;;5064306;28;20090;-57
2022/03/30 14:17:41;;;;;;;3.00;1.70;;;10.40;16.00;;;;;;5050605;28;20442;-58
2022/03/30 14:20:07;;;;;;;3.53;1.70;;;10.20;15.80;;;;;;5067267;28;20051;-59
2022/03/30 14:22:33;;;;;;;6.82;2.20;;;10.20;15.90;;;;;;5050301;28;20028;-59
2022/03/30 14:24:59;;;;;;;3.75;1.70;;;10.10;16.10;;;;;;5067223;28;20086;-58
2022/03/30 14:27:24;;;;;;;3.92;1.63;;;10.10;16.10;;;;;;5070364;28;20032;-60
2022/03/30 14:29:50;;;;;;;2.97;1.70;;;10.00;16.40;;;;;;5055130;28;20453;-59
2022/03/30 14:32:16;;;;;;;4.78;1.60;;;9.70;16.10;;;;;;5069801;28;20476;-61
2022/03/30 14:34:42;;;;;;;4.30;1.80;;;9.70;16.50;;;;;;5053737;28;20028;-59
2022/03/30 14:37:08;;;;;;;6.40;2.08;;;9.70;16.70;;;;;;5051348;28;20097;-58
2022/03/30 14:39:33;;;;;;;5.95;2.30;;;9.60;16.50;;;;;;5067282;28;20111;-59
2022/03/30 14:41:59;;;;;;;3.63;1.95;;;9.70;16.50;;;;;;5070048;28;20756;-59
2022/03/30 14:44:24;;;;;;;5.85;1.90;;;9.80;16.60;;;;;;5051072;28;20028;-59
2022/03/30 14:46:50;;;;;;;3.65;1.50;;;9.70;16.30;;;;;;5070140;28;20033;-59
2022/03/30 14:49:15;;;;;;;3.80;1.50;;;9.90;16.10;;;;;;5049874;28;20045;-59
2022/03/30 14:51:41;;;;;;;5.22;1.98;;;9.90;15.90;;;;;;5057798;28;20025;-59
2022/03/30 14:54:06;;;;;;;3.53;1.67;;;9.70;15.80;;;;;;5066888;28;20039;-59
2022/03/30 14:56:32;;;;;;;3.38;1.48;;;9.60;15.80;;;;;;5059129;28;20020;-59
2022/03/30 14:58:58;;;;;;;2.38;1.35;;;9.60;15.50;;;;;;5049567;28;20052;-59
2022/03/30 15:01:23;;;;;;;5.40;1.92;;;9.70;15.60;;;;;;5047865;28;20021;-59
2022/03/30 15:03:49;;;;;;;4.53;1.73;;;9.60;16.00;;;;;;5068811;28;20060;-59
2022/03/30 15:06:15;;;;;;;3.50;1.48;;;9.50;15.20;;;;;;5048014;28;20044;-59
2022/03/30 15:08:41;;;;;;;4.65;1.50;;;9.60;15.20;;;;;;5068377;28;20032;-59
2022/03/30 15:11:11;;;;;;;2.47;1.40;;;9.60;15.00;;;;;;5047718;28;20039;-60
2022/03/30 15:13:37;;;;;;;3.72;1.40;;;9.70;15.40;;;;;;5048976;28;20112;-59
2022/03/30 15:16:02;;;;;;;4.15;1.27;;;9.70;15.20;;;;;;5056891;28;20112;-62
2022/03/30 15:18:28;;;;;;;3.38;1.40;;;9.80;15.20;;;;;;5049305;28;20374;-62
2022/03/30 15:20:54;;;;;;;2.55;1.08;;;9.70;15.20;;;;;;5052384;28;20480;-62
2022/03/30 15:23:19;;;;;;;2.55;1.40;;;9.60;15.90;;;;;;5066614;28;20032;-62
2022/03/30 15:25:45;;;;;;;3.35;1.35;;;9.70;15.10;;;;;;5059674;28;20052;-61
2022/03/30 15:28:10;;;;;;;1.67;0.88;;;9.60;14.90;;;;;;5057532;28;20079;-62
2022/03/30 15:30:36;;;;;;;3.55;1.60;;;9.60;15.40;;;;;;5050688;28;20029;-62
2022/03/30 15:33:02;;;;;;;2.53;1.65;;;9.60;15.90;;;;;;5067185;28;20439;-63
2022/03/30 15:36:07;;;;;;;6.72;1.60;;;9.60;15.50;;;;;;5050508;28;20036;-60
2022/03/30 15:39:32;;;;;;;3.60;1.33;;;9.50;15.20;;;;;;5058487;28;20042;-60
2022/03/30 15:43:01;;;;;;;2.80;1.00;;;9.30;15.70;;;;;;5061670;28;20078;-60
2022/03/30 15:46:23;;;;;;;6.13;1.52;;;9.30;15.90;;;;;;5064974;28;20036;-59
2022/03/30 15:49:48;;;;;;;1.52;1.00;;;9.30;15.80;;;;;;5063814;28;20044;-60
2022/03/30 15:53:14;;;;;;;4.35;1.63;;;9.20;16.00;;;;;;5045947;28;20041;-60
2022/03/30 15:56:39;;;;;;;4.05;1.58;;;8.90;16.40;;;;;;5058245;28;20435;-60
2022/03/30 16:00:05;;;;;;;6.13;1.60;;;8.70;17.00;;;;;;5064987;28;20047;-59
2022/03/30 16:03:30;;;;;;;4.10;1.83;;;8.50;17.50;;;;;;5042926;28;20519;-59
2022/03/30 16:06:55;;;;;;;2.75;1.33;;;8.30;17.70;;;;;;5057930;28;20036;-59
2022/03/30 16:10:21;;;;;;;3.33;1.50;;;8.10;18.10;;;;;;5051705;28;20049;-59
2022/03/30 16:13:46;;;;;;;4.03;1.60;;;8.00;18.90;;;;;;5048817;28;20041;-60
2022/03/30 16:17:11;;;;;;;2.08;1.40;;;8.00;18.70;;;;;;5056586;28;20043;-59
2022/03/30 16:20:37;;;;;;;5.75;1.58;;;7.90;18.40;;;;;;5049364;28;20059;-59
2022/03/30 16:24:03;;;;;;;5.55;1.42;;;7.80;18.40;;;;;;5061573;28;20033;-60
2022/03/30 16:27:27;;;;;;;5.85;1.50;;;7.80;18.10;;;;;;5035940;28;20036;-59
2022/03/30 16:30:53;;;;;;;2.25;1.20;;;7.70;17.90;;;;;;5050471;28;20098;-59
2022/03/30 16:34:18;;;;;;;2.28;1.20;;;7.70;18.30;;;;;;5061056;28;20137;-60
2022/03/30 16:37:44;;;;;;;3.05;1.13;;;7.60;18.30;;;;;;5053923;28;20025;-59
2022/03/30 16:41:09;;;;;;;3.63;1.65;;;7.60;18.20;;;;;;5062030;28;20064;-59
2022/03/30 16:44:34;;;;;;;2.60;2.20;;;7.50;18.30;;;;;;5062049;28;20037;-59
2022/03/30 16:48:04;;;;;;;3.22;2.00;;;7.40;18.40;;;;;;5051281;28;20561;-59
2022/03/30 16:51:25;;;;;;;4.90;1.77;;;7.30;18.70;;;;;;5060334;28;20047;-59